Time;durP1;ratioP1;P1;durP2;ratioP2;P2;SDS_P1;SDS_P2;PMS_P1;PMS_P2;Temp;Humidity;BMP_temperature;BMP_pressure;BME280_temperature;BME280_humidity;BME280_pressure;Samples;Min_cycle;Max_cycle;Signal;HPM_P1;HPM_P2
2023/06/05 00:03:26;;;;;;;;;;;14.70;99.90;;;;;;20852398;28;20011;-75
2023/06/05 00:13:27;;;;;;;;;;;14.50;99.90;;;;;;20877263;28;19920;-75
2023/06/05 00:23:28;;;;;;;;;;;14.30;99.90;;;;;;20918613;28;20264;-75
2023/06/05 00:33:30;;;;;;;;;;;14.30;99.90;;;;;;20837937;28;19913;-75
2023/06/05 00:43:31;;;;;;;;;;;14.00;99.90;;;;;;20829948;28;19943;-75
2023/06/05 00:53:34;;;;;;;;;;;13.80;99.90;;;;;;20831141;28;19913;-75
2023/06/05 01:03:35;;;;;;;;;;;13.30;99.90;;;;;;20830683;28;19924;-75
2023/06/05 01:13:36;;;;;;;;;;;12.90;99.90;;;;;;20829150;28;20019;-77
2023/06/05 01:23:37;;;;;;;;;;;12.60;99.90;;;;;;20829257;28;19917;-76
2023/06/05 01:33:43;;;;;;;;;;;12.40;99.90;;;;;;20827039;28;20411;-76
2023/06/05 01:43:45;;;;;;;;;;;12.30;99.90;;;;;;20829912;28;19963;-76
2023/06/05 01:53:48;;;;;;;;;;;12.00;99.90;;;;;;20878316;28;19917;-75
2023/06/05 02:03:49;;;;;;;;;;;11.90;99.90;;;;;;20827755;28;19917;-75
2023/06/05 02:13:52;;;;;;;;;;;11.70;99.90;;;;;;20825651;28;20426;-74
2023/06/05 02:23:53;;;;;;;;;;;11.60;99.90;;;;;;20825952;28;19917;-74
2023/06/05 02:33:55;;;;;;;;;;;11.40;99.90;;;;;;20831892;28;20445;-75
2023/06/05 02:43:56;;;;;;;;;;;11.20;99.90;;;;;;20795363;28;19921;-74
2023/06/05 02:53:58;;;;;;;;;;;11.20;99.90;;;;;;20823046;28;19956;-74
2023/06/05 03:04:02;;;;;;;;;;;10.80;99.90;;;;;;20822239;28;19921;-75
2023/06/05 03:14:03;;;;;;;;;;;10.70;99.90;;;;;;20822034;28;20300;-74
2023/06/05 03:24:08;;;;;;;;;;;10.50;99.90;;;;;;20821409;28;19975;-75
2023/06/05 03:34:10;;;;;;;;;;;10.40;99.90;;;;;;20822348;28;19913;-75
2023/06/05 03:44:11;;;;;;;;;;;10.50;99.90;;;;;;20817161;28;19924;-76
2023/06/05 03:54:12;;;;;;;;;;;10.40;99.90;;;;;;20831844;28;20007;-75
2023/06/05 04:04:14;;;;;;;;;;;10.40;99.90;;;;;;20830914;28;19968;-75
2023/06/05 04:14:15;;;;;;;;;;;10.40;99.90;;;;;;20830411;28;19948;-75
2023/06/05 04:24:16;;;;;;;;;;;10.50;99.90;;;;;;20832310;28;19921;-75
2023/06/05 04:34:20;;;;;;;;;;;10.70;99.90;;;;;;20832708;28;19920;-76
2023/06/05 04:44:21;;;;;;;;;;;10.90;99.90;;;;;;20875049;28;19952;-76
2023/06/05 04:54:22;;;;;;;;;;;11.20;99.90;;;;;;20870920;28;19913;-76
2023/06/05 05:04:23;;;;;;;;;;;11.80;99.90;;;;;;20824099;28;19924;-77
2023/06/05 05:14:27;;;;;;;;;;;12.30;99.90;;;;;;20827675;28;19913;-75
2023/06/05 05:24:27;;;;;;;;;;;12.80;99.90;;;;;;20863224;28;20019;-76
2023/06/05 05:34:28;;;;;;;;;;;13.20;99.90;;;;;;20846473;28;19956;-76
2023/06/05 05:44:29;;;;;;;;;;;13.70;99.90;;;;;;20851343;28;19927;-76
2023/06/05 05:54:30;;;;;;;;;;;13.90;99.90;;;;;;20843618;28;19920;-76
2023/06/05 06:04:30;;;;;;;;;;;14.10;99.90;;;;;;20852750;28;20374;-76
2023/06/05 06:14:32;;;;;;;;;;;14.70;99.90;;;;;;20871380;28;19913;-76
2023/06/05 06:24:33;;;;;;;;;;;15.30;99.90;;;;;;20858662;28;19917;-75
2023/06/05 06:34:34;;;;;;;;;;;15.80;99.90;;;;;;20836150;28;20261;-77
2023/06/05 06:44:35;;;;;;;;;;;16.30;99.90;;;;;;20803805;28;19917;-77
2023/06/05 06:54:37;;;;;;;;;;;16.80;99.90;;;;;;20814322;28;19913;-77
2023/06/05 07:04:38;;;;;;;;;;;17.10;99.90;;;;;;20818550;28;19917;-76
2023/06/05 07:14:39;;;;;;;;;;;18.00;99.90;;;;;;20831849;28;20388;-76
2023/06/05 07:24:41;;;;;;;;;;;18.70;99.90;;;;;;20836147;28;19953;-75
2023/06/05 07:34:42;;;;;;;;;;;19.40;99.90;;;;;;20812582;28;19990;-74
2023/06/05 07:44:43;;;;;;;;;;;19.60;99.90;;;;;;20834061;28;19917;-76
2023/06/05 07:54:44;;;;;;;;;;;20.40;99.90;;;;;;20833810;28;20471;-76
2023/06/05 08:04:44;;;;;;;;;;;20.80;99.90;;;;;;20833356;28;19917;-75
2023/06/05 08:14:45;;;;;;;;;;;21.00;99.90;;;;;;20832179;28;19920;-75
2023/06/05 08:24:48;;;;;;;;;;;21.60;99.90;;;;;;20829719;28;20160;-75
2023/06/05 08:34:48;;;;;;;;;;;22.20;99.90;;;;;;20812119;28;20283;-75
2023/06/05 08:44:49;;;;;;;;;;;22.90;99.90;;;;;;20828585;28;19917;-75
2023/06/05 08:54:50;;;;;;;;;;;24.20;99.90;;;;;;20828670;28;20003;-75
2023/06/05 09:04:51;;;;;;;;;;;24.10;99.90;;;;;;20809502;28;19917;-75
2023/06/05 09:14:52;;;;;;;;;;;25.20;98.60;;;;;;20808811;28;20035;-76
2023/06/05 09:24:56;;;;;;;;;;;25.70;96.80;;;;;;20809245;28;19923;-76
2023/06/05 09:35:00;;;;;;;;;;;25.60;97.90;;;;;;20813776;28;19924;-77
2023/06/05 09:45:01;;;;;;;;;;;26.30;96.20;;;;;;20822739;28;19932;-76
2023/06/05 09:55:03;;;;;;;;;;;26.40;95.20;;;;;;20822892;28;19928;-76
2023/06/05 10:05:06;;;;;;;;;;;27.10;95.00;;;;;;20823418;28;19917;-77
2023/06/05 10:15:08;;;;;;;;;;;27.30;93.90;;;;;;20821368;28;19921;-76
2023/06/05 10:25:11;;;;;;;;;;;27.80;92.00;;;;;;20821081;28;20020;-75
2023/06/05 10:35:12;;;;;;;;;;;27.90;92.20;;;;;;20825079;28;19913;-77
2023/06/05 10:45:13;;;;;;;;;;;27.40;92.40;;;;;;20833120;28;19917;-79
2023/06/05 10:55:15;;;;;;;;;;;28.30;90.80;;;;;;20861258;28;19969;-78
2023/06/05 11:05:16;;;;;;;;;;;26.60;92.00;;;;;;20857650;28;19917;-79
2023/06/05 11:15:22;;;;;;;;;;;27.30;92.70;;;;;;20838119;28;19932;-77
2023/06/05 11:25:32;;;;;;;;;;;28.90;90.90;;;;;;20862449;28;20303;-76
2023/06/05 11:35:33;;;;;;;;;;;27.50;91.90;;;;;;20860735;28;19964;-79
2023/06/05 11:45:35;;;;;;;;;;;27.50;91.30;;;;;;20848744;28;19917;-78
2023/06/05 11:56:05;;;;;;;;;;;29.70;88.70;;;;;;20837932;28;20376;-78
2023/06/05 12:06:00;;;;;;;;;;;29.40;85.80;;;;;;20847448;28;20012;-77
2023/06/05 12:16:01;;;;;;;;;;;29.90;83.80;;;;;;20850001;28;19939;-78
2023/06/05 12:26:03;;;;;;;;;;;29.20;84.90;;;;;;20845437;28;19948;-77
2023/06/05 12:36:04;;;;;;;;;;;30.00;83.20;;;;;;20846180;28;20315;-78
2023/06/05 12:46:07;;;;;;;;;;;29.70;80.30;;;;;;20834979;28;19963;-78
2023/06/05 12:56:08;;;;;;;;;;;29.90;82.00;;;;;;20841248;28;19913;-78
2023/06/05 13:06:09;;;;;;;;;;;29.70;82.30;;;;;;20857897;28;20011;-78
2023/06/05 13:16:10;;;;;;;;;;;30.20;81.40;;;;;;20839591;28;19919;-78
2023/06/05 13:26:10;;;;;;;;;;;29.90;82.50;;;;;;20843419;28;20015;-77
2023/06/05 13:36:11;;;;;;;;;;;29.00;84.40;;;;;;20841336;28;19986;-78
2023/06/05 13:46:14;;;;;;;;;;;29.90;80.50;;;;;;20840534;28;20219;-78
2023/06/05 13:56:14;;;;;;;;;;;28.80;82.00;;;;;;20839746;28;19913;-78
2023/06/05 14:06:16;;;;;;;;;;;29.30;86.50;;;;;;20838018;28;19917;-77
2023/06/05 14:16:17;;;;;;;;;;;28.70;83.70;;;;;;20838372;28;20008;-77
2023/06/05 14:26:17;;;;;;;;;;;28.40;84.30;;;;;;20830202;28;19929;-79
2023/06/05 14:36:18;;;;;;;;;;;28.10;86.90;;;;;;20838195;28;19924;-77
2023/06/05 14:46:19;;;;;;;;;;;26.20;87.60;;;;;;20820071;28;19921;-77
2023/06/05 14:56:21;;;;;;;;;;;27.00;91.30;;;;;;20826529;28;20051;-76
2023/06/05 15:06:22;;;;;;;;;;;27.10;89.70;;;;;;20821807;28;19917;-76
2023/06/05 15:16:23;;;;;;;;;;;27.40;92.00;;;;;;20824330;28;19919;-77
2023/06/05 15:26:24;;;;;;;;;;;27.60;90.60;;;;;;20826784;28;19955;-79
2023/06/05 15:36:25;;;;;;;;;;;26.70;88.80;;;;;;20817402;28;20012;-77
2023/06/05 15:46:26;;;;;;;;;;;26.00;91.90;;;;;;20818476;28;20368;-76
2023/06/05 15:56:27;;;;;;;;;;;23.60;98.00;;;;;;20844566;28;19923;-77
2023/06/05 16:06:28;;;;;;;;;;;22.70;99.90;;;;;;20916567;28;20334;-76
2023/06/05 16:16:30;;;;;;;;;;;22.90;99.90;;;;;;20899638;28;19913;-75
2023/06/05 16:26:31;;;;;;;;;;;23.30;99.90;;;;;;20859676;28;20383;-77
2023/06/05 16:36:31;;;;;;;;;;;23.40;99.90;;;;;;20829207;28;20035;-78
2023/06/05 16:46:33;;;;;;;;;;;23.50;99.90;;;;;;20837918;28;19923;-79
2023/06/05 16:56:33;;;;;;;;;;;23.70;99.90;;;;;;20823904;28;20328;-78
2023/06/05 17:06:34;;;;;;;;;;;23.80;99.90;;;;;;20831082;28;19924;-77
2023/06/05 17:16:38;;;;;;;;;;;23.60;99.90;;;;;;20832204;28;19956;-78
2023/06/05 17:26:38;;;;;;;;;;;23.10;99.90;;;;;;20826197;28;20341;-77
2023/06/05 17:36:39;;;;;;;;;;;24.10;99.90;;;;;;20835477;28;19917;-78
2023/06/05 17:46:40;;;;;;;;;;;24.90;99.60;;;;;;20832174;28;19924;-78
2023/06/05 17:56:40;;;;;;;;;;;23.70;99.60;;;;;;20838282;28;19939;-76
2023/06/05 18:06:41;;;;;;;;;;;23.50;99.90;;;;;;20824515;28;19921;-76
2023/06/05 18:16:42;;;;;;;;;;;23.00;99.90;;;;;;20855822;28;20192;-76
2023/06/05 18:26:43;;;;;;;;;;;22.00;99.90;;;;;;20875448;28;19955;-75
2023/06/05 18:36:44;;;;;;;;;;;21.80;99.90;;;;;;20882076;28;19921;-76
2023/06/05 18:46:45;;;;;;;;;;;21.10;99.90;;;;;;20823488;28;20005;-75
2023/06/05 18:56:45;;;;;;;;;;;20.80;99.90;;;;;;20822172;28;20394;-75
2023/06/05 19:06:46;;;;;;;;;;;21.10;99.90;;;;;;20827291;28;19917;-76
2023/06/05 19:16:46;;;;;;;;;;;20.80;99.90;;;;;;20826038;28;19920;-77
2023/06/05 19:26:47;;;;;;;;;;;20.20;99.90;;;;;;20843615;28;20016;-77
2023/06/05 19:36:48;;;;;;;;;;;20.00;99.90;;;;;;20840804;28;19943;-77
2023/06/05 19:46:48;;;;;;;;;;;19.90;99.90;;;;;;20839410;28;19917;-76
2023/06/05 19:56:50;;;;;;;;;;;19.90;99.90;;;;;;20840732;28;19919;-77
2023/06/05 20:06:50;;;;;;;;;;;19.70;99.90;;;;;;20836855;28;20358;-77
2023/06/05 20:16:51;;;;;;;;;;;19.60;99.90;;;;;;20850560;28;19913;-76
2023/06/05 20:26:52;;;;;;;;;;;19.30;99.90;;;;;;20851033;28;19917;-75
2023/06/05 20:36:53;;;;;;;;;;;19.60;99.90;;;;;;20838683;28;19923;-76
2023/06/05 20:46:55;;;;;;;;;;;19.50;99.90;;;;;;20839842;28;20431;-75
2023/06/05 20:57:07;;;;;;;;;;;19.40;99.90;;;;;;20842964;28;19917;-75
2023/06/05 21:07:08;;;;;;;;;;;19.40;99.90;;;;;;20832871;28;19920;-75
2023/06/05 21:17:09;;;;;;;;;;;19.40;99.90;;;;;;20833058;28;19920;-75
2023/06/05 21:27:10;;;;;;;;;;;19.00;99.90;;;;;;20842654;28;19917;-75
2023/06/05 21:37:13;;;;;;;;;;;18.80;99.90;;;;;;20841632;28;19917;-75
2023/06/05 21:47:17;;;;;;;;;;;18.40;99.90;;;;;;20848714;28;19916;-76
2023/06/05 21:57:18;;;;;;;;;;;18.20;99.90;;;;;;20849457;28;20370;-76
2023/06/05 22:07:18;;;;;;;;;;;18.10;99.90;;;;;;20834193;28;20008;-75
2023/06/05 22:17:25;;;;;;;;;;;17.90;99.90;;;;;;20829829;28;19913;-76
2023/06/05 22:27:25;;;;;;;;;;;18.20;99.90;;;;;;20831821;28;19963;-77
2023/06/05 22:37:29;;;;;;;;;;;18.00;99.90;;;;;;20832072;28;19917;-76
2023/06/05 22:47:32;;;;;;;;;;;18.00;99.90;;;;;;20849818;28;19932;-76
2023/06/05 22:57:33;;;;;;;;;;;17.20;99.90;;;;;;20866245;28;19913;-77
2023/06/05 23:07:33;;;;;;;;;;;16.80;99.90;;;;;;20866174;28;19924;-78
2023/06/05 23:17:34;;;;;;;;;;;16.70;99.90;;;;;;20853861;28;19935;-76
2023/06/05 23:27:35;;;;;;;;;;;17.20;99.90;;;;;;20841630;28;20000;-75
2023/06/05 23:37:35;;;;;;;;;;;17.10;99.90;;;;;;20838488;28;19971;-76
2023/06/05 23:47:36;;;;;;;;;;;16.90;99.90;;;;;;20847381;28;19924;-76
2023/06/05 23:57:37;;;;;;;;;;;16.90;99.90;;;;;;20876606;28;19912;-76
